Time;durP1;ratioP1;P1;durP2;ratioP2;P2;SDS_P1;SDS_P2;PMS_P1;PMS_P2;Temp;Humidity;BMP_temperature;BMP_pressure;BME280_temperature;BME280_humidity;BME280_pressure;Samples;Min_cycle;Max_cycle;Signal;HPM_P1;HPM_P2
2022/07/05 00:01:08;;;;;;;19.17;16.00;;;640.30;2432.00;;;;;;6247177;23;20377;-85
2022/07/05 00:03:34;;;;;;;20.88;15.23;;;640.00;2432.00;;;;;;6247292;23;20091;-85
2022/07/05 00:06:00;;;;;;;17.83;14.05;;;640.10;2432.00;;;;;;6246942;23;20014;-84
2022/07/05 00:08:26;;;;;;;15.70;13.95;;;640.30;2432.00;;;;;;6247023;23;20000;-84
2022/07/05 00:10:52;;;;;;;17.45;14.82;;;640.30;2432.00;;;;;;6247327;23;20461;-84
2022/07/05 00:13:18;;;;;;;20.17;15.85;;;640.10;2432.00;;;;;;6247130;23;20083;-84
2022/07/05 00:15:43;;;;;;;16.52;14.77;;;640.00;2432.00;;;;;;6247213;23;20001;-86
2022/07/05 00:18:09;;;;;;;19.15;15.05;;;640.10;2432.00;;;;;;6247159;23;20005;-85
2022/07/05 00:20:35;;;;;;;18.23;16.30;;;640.10;2432.00;;;;;;6247577;23;20004;-86
2022/07/05 00:23:01;;;;;;;18.48;15.63;;;640.10;2432.00;;;;;;6246732;23;20008;-86
2022/07/05 00:25:27;;;;;;;17.55;14.88;;;640.10;2432.00;;;;;;6247082;23;20418;-85
2022/07/05 00:27:55;;;;;;;18.63;16.48;;;615.30;2432.00;;;;;;6247306;23;19997;-85
2022/07/05 00:30:21;;;;;;;17.98;16.13;;;615.10;2432.00;;;;;;6246897;23;20079;-85
2022/07/05 00:32:47;;;;;;;18.77;16.58;;;615.10;2432.00;;;;;;6247269;23;20023;-86
2022/07/05 00:35:13;;;;;;;18.73;16.63;;;614.80;2432.00;;;;;;6246772;23;20000;-86
2022/07/05 00:37:38;;;;;;;20.70;16.45;;;615.00;2432.00;;;;;;6246983;23;20084;-85
2022/07/05 00:40:07;;;;;;;20.38;15.68;;;615.10;2432.00;;;;;;6247150;23;20058;-84
2022/07/05 00:42:33;;;;;;;21.60;17.40;;;615.30;2432.00;;;;;;6246782;23;20028;-85
2022/07/05 00:44:59;;;;;;;20.73;16.85;;;615.20;2432.00;;;;;;6246367;23;19996;-85
2022/07/05 00:47:25;;;;;;;18.13;16.20;;;615.20;2432.00;;;;;;6246868;23;20091;-87
2022/07/05 00:49:51;;;;;;;20.33;18.05;;;615.10;2432.00;;;;;;6246596;23;20007;-82
2022/07/05 00:52:18;;;;;;;18.90;16.92;;;615.10;2432.00;;;;;;6247104;23;20004;-83
2022/07/05 00:54:44;;;;;;;19.92;15.77;;;615.10;2432.00;;;;;;6246838;23;20079;-85
2022/07/05 00:57:10;;;;;;;20.27;16.58;;;615.20;2432.00;;;;;;6246629;23;20008;-85
2022/07/05 00:59:36;;;;;;;18.02;15.52;;;615.30;2432.00;;;;;;6246925;23;20007;-85
2022/07/05 01:02:02;;;;;;;20.75;15.93;;;640.00;2432.00;;;;;;6247016;23;20004;-85
2022/07/05 01:04:28;;;;;;;21.73;16.95;;;615.10;2432.00;;;;;;6246891;23;20422;-85
2022/07/05 01:06:56;;;;;;;17.52;15.80;;;615.00;2432.00;;;;;;6246849;23;20015;-84
2022/07/05 01:09:23;;;;;;;19.23;16.52;;;615.00;2432.00;;;;;;6246596;23;20000;-85
2022/07/05 01:11:49;;;;;;;23.55;16.80;;;615.00;2432.00;;;;;;6246586;23;20000;-85
2022/07/05 01:14:21;;;;;;;18.38;16.48;;;615.10;2432.00;;;;;;6246700;23;20007;-85
2022/07/05 01:16:49;;;;;;;19.43;17.33;;;615.10;2432.00;;;;;;6246726;23;20015;-86
2022/07/05 01:19:17;;;;;;;18.40;15.70;;;615.30;2432.00;;;;;;6246039;23;20027;-86
2022/07/05 01:21:46;;;;;;;18.55;16.65;;;640.50;2432.00;;;;;;6246417;23;20046;-84
2022/07/05 01:24:14;;;;;;;17.40;15.65;;;614.90;2432.00;;;;;;6246253;23;20011;-86
2022/07/05 01:26:41;;;;;;;19.42;16.17;;;615.00;2432.00;;;;;;6248400;22;20001;-84
2022/07/05 01:29:08;;;;;;;18.17;16.38;;;615.10;2432.00;;;;;;6246532;23;20431;-86
2022/07/05 01:31:38;;;;;;;17.92;15.85;;;614.80;2432.00;;;;;;6246113;23;20003;-84
2022/07/05 01:34:05;;;;;;;19.83;16.90;;;614.90;2432.00;;;;;;6246416;23;20419;-85
2022/07/05 01:36:32;;;;;;;18.65;15.38;;;614.50;2432.00;;;;;;6246640;23;20004;-85
2022/07/05 01:38:58;;;;;;;19.27;16.25;;;614.40;2432.00;;;;;;6246493;23;20003;-86
2022/07/05 01:41:24;;;;;;;20.02;16.13;;;614.60;2432.00;;;;;;6247225;23;19996;-85
2022/07/05 01:43:50;;;;;;;17.25;15.55;;;614.50;2432.00;;;;;;6247735;23;20087;-86
2022/07/05 01:46:19;;;;;;;18.40;16.13;;;614.70;2432.00;;;;;;6259366;23;20087;-83
2022/07/05 01:48:46;;;;;;;19.08;16.77;;;614.70;2432.00;;;;;;6261938;23;20004;-84
2022/07/05 01:51:29;;;;;;;21.35;16.73;;;614.60;2432.00;;;;;;6246440;23;20453;-84
2022/07/05 01:53:55;;;;;;;20.58;17.92;;;614.60;2432.00;;;;;;6246229;23;20389;-85
2022/07/05 01:56:21;;;;;;;25.10;18.27;;;614.60;2432.00;;;;;;6246579;23;20004;-86
2022/07/05 01:58:48;;;;;;;25.88;16.40;;;614.60;2432.00;;;;;;6245822;23;20035;-86
2022/07/05 02:01:14;;;;;;;18.95;16.70;;;614.50;2432.00;;;;;;6245926;23;20005;-87
2022/07/05 02:03:40;;;;;;;20.05;16.55;;;614.50;2432.00;;;;;;6246363;23;20133;-86
2022/07/05 02:06:08;;;;;;;20.85;16.95;;;614.50;2432.00;;;;;;6246149;23;20008;-85
2022/07/05 02:08:34;;;;;;;19.55;17.38;;;614.40;2432.00;;;;;;6246241;23;19996;-85
2022/07/05 02:11:00;;;;;;;20.17;17.80;;;614.50;2432.00;;;;;;6246054;23;20004;-85
2022/07/05 02:13:26;;;;;;;18.58;16.70;;;614.50;2432.00;;;;;;6245994;23;20007;-86
2022/07/05 02:15:51;;;;;;;20.13;17.27;;;589.70;2432.00;;;;;;6246699;23;20417;-86
2022/07/05 02:18:17;;;;;;;20.25;18.23;;;589.70;2432.00;;;;;;6246577;23;20012;-86
2022/07/05 02:20:43;;;;;;;21.42;18.25;;;614.40;2432.00;;;;;;6246025;23;20081;-84
2022/07/05 02:23:09;;;;;;;19.30;17.30;;;589.70;2432.00;;;;;;6245820;23;20437;-84
2022/07/05 02:25:35;;;;;;;19.52;17.52;;;614.40;2432.00;;;;;;6245705;23;20011;-85
2022/07/05 02:28:01;;;;;;;19.67;17.17;;;614.50;2432.00;;;;;;6245647;23;20373;-85
2022/07/05 02:30:27;;;;;;;21.40;17.08;;;614.60;2432.00;;;;;;6246997;22;19996;-86
2022/07/05 02:32:53;;;;;;;20.27;18.05;;;614.50;2432.00;;;;;;6245897;23;20102;-85
2022/07/05 02:35:19;;;;;;;20.25;18.15;;;614.40;2432.00;;;;;;6245388;23;20318;-85
2022/07/05 02:37:45;;;;;;;20.67;17.75;;;614.50;2432.00;;;;;;6246234;23;20135;-86
2022/07/05 02:40:13;;;;;;;20.40;17.42;;;614.50;2432.00;;;;;;6245918;23;20084;-85
2022/07/05 02:42:39;;;;;;;21.23;18.95;;;589.70;2432.00;;;;;;6245451;23;20007;-85
2022/07/05 02:45:06;;;;;;;20.70;17.13;;;589.50;2432.00;;;;;;6245659;23;20000;-85
2022/07/05 02:47:34;;;;;;;24.35;19.60;;;589.50;2432.00;;;;;;6245236;23;20016;-85
2022/07/05 02:50:07;;;;;;;21.88;18.52;;;589.40;2432.00;;;;;;6245999;23;20004;-84
2022/07/05 02:52:34;;;;;;;18.85;16.88;;;589.40;2432.00;;;;;;6273824;22;20039;-85
2022/07/05 02:55:00;;;;;;;18.48;16.50;;;589.60;2432.00;;;;;;6260931;22;20011;-86
2022/07/05 02:57:26;;;;;;;18.90;16.83;;;614.40;2432.00;;;;;;6247067;23;20009;-85
2022/07/05 02:59:56;;;;;;;19.90;17.83;;;614.40;2432.00;;;;;;6247601;23;20249;-85
2022/07/05 03:02:22;;;;;;;20.15;17.80;;;614.50;2432.00;;;;;;6246760;23;20480;-85
2022/07/05 03:04:48;;;;;;;18.10;16.23;;;589.70;2432.00;;;;;;6245604;23;20023;-86
2022/07/05 03:07:14;;;;;;;20.80;17.33;;;614.40;2432.00;;;;;;6245597;23;20008;-85
2022/07/05 03:09:40;;;;;;;21.10;17.17;;;589.70;2432.00;;;;;;6245428;23;19997;-85
2022/07/05 03:12:06;;;;;;;19.60;17.65;;;589.70;2432.00;;;;;;6245428;23;20028;-85
2022/07/05 03:14:32;;;;;;;19.67;17.55;;;589.70;2432.00;;;;;;6245317;23;20020;-86
2022/07/05 03:16:57;;;;;;;21.77;17.08;;;589.60;2432.00;;;;;;6245245;23;20001;-86
2022/07/05 03:19:23;;;;;;;20.10;17.98;;;589.60;2432.00;;;;;;6245474;23;20054;-85
2022/07/05 03:21:49;;;;;;;21.13;17.73;;;589.50;2432.00;;;;;;6245146;23;20016;-85
2022/07/05 03:24:15;;;;;;;18.95;17.05;;;589.20;2432.00;;;;;;6245233;23;20418;-84
2022/07/05 03:26:41;;;;;;;19.38;17.27;;;589.00;2432.00;;;;;;6245230;23;20016;-86
2022/07/05 03:29:07;;;;;;;19.73;17.77;;;589.10;2432.00;;;;;;6245532;23;20322;-85
2022/07/05 03:31:33;;;;;;;20.05;16.92;;;588.90;2432.00;;;;;;6244963;23;20012;-86
2022/07/05 03:33:59;;;;;;;19.90;17.10;;;;;;;;;;6245959;23;20000;-84
2022/07/05 03:36:25;;;;;;;20.02;17.35;;;589.20;2432.00;;;;;;6247667;23;20009;-86
2022/07/05 03:38:51;;;;;;;21.90;17.95;;;589.10;2432.00;;;;;;6247154;23;20023;-85
2022/07/05 03:41:17;;;;;;;18.73;16.60;;;589.10;2432.00;;;;;;6247677;23;20452;-86
2022/07/05 03:43:43;;;;;;;19.20;17.00;;;589.20;2432.00;;;;;;6247567;23;20031;-85
2022/07/05 03:46:08;;;;;;;20.77;18.63;;;589.10;2432.00;;;;;;6247094;23;20016;-86
2022/07/05 03:48:34;;;;;;;19.13;17.13;;;588.90;2432.00;;;;;;6247665;23;20422;-84
2022/07/05 03:51:00;;;;;;;21.33;18.65;;;588.80;2432.00;;;;;;6246958;23;20000;-86
2022/07/05 03:53:26;;;;;;;20.25;18.30;;;564.10;2432.00;;;;;;6247355;23;20011;-85
2022/07/05 03:55:52;;;;;;;21.63;17.73;;;564.10;2432.00;;;;;;6247274;23;20004;-86
2022/07/05 03:58:17;;;;;;;23.63;18.02;;;564.10;2432.00;;;;;;6247231;23;20057;-85
2022/07/05 04:00:43;;;;;;;21.25;19.05;;;564.10;2432.00;;;;;;6247246;23;20000;-86
2022/07/05 04:03:09;;;;;;;27.83;18.98;;;563.90;2432.00;;;;;;6247381;23;20000;-86
2022/07/05 04:05:35;;;;;;;20.88;18.77;;;564.10;2432.00;;;;;;6246800;23;20046;-85
2022/07/05 04:08:00;;;;;;;19.52;17.42;;;564.10;2432.00;;;;;;6247359;23;20087;-86
2022/07/05 04:10:26;;;;;;;26.00;18.35;;;564.10;2432.00;;;;;;6247288;23;20011;-85
2022/07/05 04:12:52;;;;;;;21.88;17.73;;;589.00;2432.00;;;;;;6247019;23;20091;-85
2022/07/05 04:15:18;;;;;;;20.88;17.60;;;589.10;2432.00;;;;;;6247114;23;20004;-86
2022/07/05 04:17:49;;;;;;;19.63;17.52;;;589.20;2432.00;;;;;;6247070;23;20004;-84
2022/07/05 04:20:15;;;;;;;20.15;17.30;;;589.20;2432.00;;;;;;6246932;23;20008;-85
2022/07/05 04:22:41;;;;;;;20.88;18.65;;;589.40;2432.00;;;;;;6246989;23;20016;-85
2022/07/05 04:25:16;;;;;;;23.83;18.15;;;589.40;2432.00;;;;;;6247201;23;20074;-85
2022/07/05 04:27:42;;;;;;;25.10;19.05;;;589.20;2432.00;;;;;;6246820;23;20012;-84
2022/07/05 04:30:09;;;;;;;25.60;18.00;;;589.00;2432.00;;;;;;6247213;23;20027;-85
2022/07/05 04:32:35;;;;;;;26.60;18.05;;;589.10;2432.00;;;;;;6247184;23;20382;-84
2022/07/05 04:35:00;;;;;;;21.55;18.60;;;589.20;2432.00;;;;;;6246765;23;20003;-85
2022/07/05 04:37:27;;;;;;;25.77;19.52;;;589.10;2432.00;;;;;;6247149;23;20376;-85
2022/07/05 04:39:53;;;;;;;28.13;21.25;;;589.10;2432.00;;;;;;6245908;23;20422;-83
2022/07/05 04:42:19;;;;;;;22.48;18.98;;;588.90;2432.00;;;;;;6246413;23;20000;-86
2022/07/05 04:44:44;;;;;;;22.42;18.95;;;589.00;2432.00;;;;;;6245182;23;20054;-85
2022/07/05 04:47:10;;;;;;;21.23;18.33;;;589.00;2432.00;;;;;;6247679;23;20095;-85
2022/07/05 04:49:36;;;;;;;21.00;18.88;;;589.20;2432.00;;;;;;6248964;23;20004;-85
2022/07/05 04:52:02;;;;;;;23.67;19.23;;;589.20;2432.00;;;;;;6266960;23;19996;-83
2022/07/05 04:54:28;;;;;;;21.90;19.63;;;589.20;2432.00;;;;;;6265231;23;20003;-86
2022/07/05 04:56:53;;;;;;;21.00;17.98;;;589.30;2432.00;;;;;;6246725;23;20004;-85
2022/07/05 04:59:19;;;;;;;20.90;18.40;;;589.50;2432.00;;;;;;6247217;23;20020;-86
2022/07/05 05:01:45;;;;;;;25.80;18.58;;;589.70;2432.00;;;;;;6246973;23;20027;-86
2022/07/05 05:04:11;;;;;;;21.98;16.70;;;589.70;2432.00;;;;;;6246687;23;20006;-85
2022/07/05 05:06:37;;;;;;;20.02;17.92;;;589.70;2432.00;;;;;;6246888;23;20018;-85
2022/07/05 05:09:02;;;;;;;19.73;17.67;;;589.70;2432.00;;;;;;6246611;23;20050;-86
2022/07/05 05:11:28;;;;;;;21.73;19.08;;;589.70;2432.00;;;;;;6246902;23;19996;-85
2022/07/05 05:13:54;;;;;;;21.35;19.02;;;589.70;2432.00;;;;;;6247119;23;19996;-87
2022/07/05 05:16:20;;;;;;;21.05;18.83;;;589.70;2432.00;;;;;;6246344;23;20000;-84
2022/07/05 05:18:46;;;;;;;25.33;18.70;;;614.40;2432.00;;;;;;6246800;23;20010;-85
2022/07/05 05:21:12;;;;;;;26.63;20.23;;;614.40;2432.00;;;;;;6246134;23;20000;-87
2022/07/05 05:23:37;;;;;;;21.88;18.98;;;614.50;2432.00;;;;;;6246593;23;20004;-86
2022/07/05 05:26:03;;;;;;;21.30;18.98;;;614.60;2432.00;;;;;;6246492;23;20062;-85
2022/07/05 05:28:29;;;;;;;25.30;17.80;;;614.80;2432.00;;;;;;6246507;23;20007;-86
2022/07/05 05:30:55;;;;;;;23.55;18.40;;;614.90;2432.00;;;;;;6246329;23;20003;-86
2022/07/05 05:33:21;;;;;;;22.58;16.92;;;;;;;;;;6246569;23;20049;-86
2022/07/05 05:35:47;;;;;;;23.30;18.30;;;615.20;2432.00;;;;;;6246895;23;20004;-85
2022/07/05 05:38:13;;;;;;;17.50;15.77;;;615.30;2432.00;;;;;;6246232;23;20030;-84
2022/07/05 05:40:41;;;;;;;17.70;15.68;;;615.30;2432.00;;;;;;6246565;23;20005;-86
2022/07/05 05:43:06;;;;;;;21.58;16.83;;;615.30;2432.00;;;;;;6245876;23;20000;-85
2022/07/05 05:45:32;;;;;;;18.13;15.75;;;640.10;2432.00;;;;;;6246569;23;20031;-85
2022/07/05 05:47:59;;;;;;;18.23;16.33;;;640.10;2432.00;;;;;;6246394;23;20419;-85
2022/07/05 05:50:36;;;;;;;18.98;17.17;;;640.20;2432.00;;;;;;6246171;23;19996;-85
2022/07/05 05:53:03;;;;;;;19.88;17.25;;;640.20;2432.00;;;;;;6246506;23;20422;-85
2022/07/05 05:55:29;;;;;;;18.67;16.77;;;640.40;2432.00;;;;;;6246596;23;20000;-85
2022/07/05 05:57:59;;;;;;;22.90;16.52;;;640.50;2432.00;;;;;;6245817;23;20050;-86
2022/07/05 06:00:25;;;;;;;20.67;17.25;;;640.50;2432.00;;;;;;6246239;23;20004;-85
2022/07/05 06:02:51;;;;;;;18.67;16.27;;;640.60;2432.00;;;;;;6246165;23;20000;-82
2022/07/05 06:05:18;;;;;;;18.60;16.60;;;640.70;2432.00;;;;;;6245943;23;20007;-83
2022/07/05 06:07:53;;;;;;;21.45;17.65;;;640.70;2432.00;;;;;;6245999;23;20456;-83
2022/07/05 06:10:24;;;;;;;21.98;16.73;;;640.90;2432.00;;;;;;6246325;23;20418;-83
2022/07/05 06:12:52;;;;;;;22.23;16.98;;;665.60;2432.00;;;;;;6246115;23;20004;-85
2022/07/05 06:15:18;;;;;;;27.67;17.60;;;665.70;2432.00;;;;;;6245971;23;20393;-84
2022/07/05 06:17:44;;;;;;;24.23;18.02;;;665.90;2432.00;;;;;;6246076;23;20086;-83
2022/07/05 06:20:15;;;;;;;22.70;18.15;;;665.90;2432.00;;;;;;6245597;23;20007;-83
2022/07/05 06:22:41;;;;;;;17.27;15.15;;;665.90;2432.00;;;;;;6245638;23;20019;-83
2022/07/05 06:25:07;;;;;;;23.58;15.80;;;666.00;2432.00;;;;;;6245557;23;20000;-82
2022/07/05 06:27:42;;;;;;;18.15;15.48;;;666.00;2432.00;;;;;;6245837;23;20077;-84
2022/07/05 06:30:08;;;;;;;16.75;14.98;;;666.00;2432.00;;;;;;6246325;23;20083;-85
2022/07/05 06:32:34;;;;;;;23.67;15.40;;;666.20;2432.00;;;;;;6246241;23;20421;-85
2022/07/05 06:35:03;;;;;;;15.50;13.90;;;666.30;2432.00;;;;;;6246209;23;20024;-86
2022/07/05 06:38:00;;;;;;;16.35;14.02;;;666.40;2432.00;;;;;;6246395;23;20338;-86
2022/07/05 06:40:35;;;;;;;19.10;15.15;;;691.20;2432.00;;;;;;6246204;23;20043;-85
2022/07/05 06:43:07;;;;;;;17.23;13.63;;;691.30;2432.00;;;;;;6246306;23;20058;-84
2022/07/05 06:45:33;;;;;;;16.55;13.65;;;691.50;2432.00;;;;;;6245699;23;20004;-85
2022/07/05 06:48:10;;;;;;;17.60;15.05;;;691.70;2432.00;;;;;;6246112;23;20000;-85
2022/07/05 06:50:42;;;;;;;15.25;13.07;;;691.90;2432.00;;;;;;6246316;23;20079;-85
2022/07/05 06:53:09;;;;;;;18.05;14.75;;;692.10;2432.00;;;;;;6246455;23;20423;-91
2022/07/05 06:55:36;;;;;;;17.05;14.57;;;716.80;2432.00;;;;;;6245977;23;20082;-84
2022/07/05 06:58:09;;;;;;;19.60;13.63;;;716.90;2432.00;;;;;;6246147;23;20000;-87
2022/07/05 07:00:39;;;;;;;14.35;13.02;;;717.10;2432.00;;;;;;6244172;23;20000;-88
2022/07/05 07:03:05;;;;;;;17.10;13.25;;;717.10;2432.00;;;;;;6245244;23;20004;-88
2022/07/05 07:05:31;;;;;;;16.30;13.40;;;717.20;2432.00;;;;;;6246174;23;20007;-87
2022/07/05 07:10:42;;;;;;;14.18;12.80;;;717.30;2432.00;;;;;;6247483;23;20381;-87
2022/07/05 07:13:09;;;;;;;17.08;14.10;;;717.20;2432.00;;;;;;6246340;23;20004;-89
2022/07/05 07:15:40;;;;;;;22.33;15.15;;;717.50;2432.00;;;;;;6246040;23;20007;-88
2022/07/05 07:18:07;;;;;;;19.10;13.90;;;717.50;2432.00;;;;;;6246154;23;20010;-88
2022/07/05 07:20:33;;;;;;;17.80;13.93;;;717.50;2432.00;;;;;;6246063;23;20051;-88
2022/07/05 07:22:59;;;;;;;16.15;12.02;;;742.40;2432.00;;;;;;6245266;23;20072;-86
2022/07/05 07:25:25;;;;;;;15.35;12.68;;;742.90;2432.00;;;;;;6245772;23;20000;-92
2022/07/05 07:27:53;;;;;;;14.70;11.80;;;742.50;2432.00;;;;;;6246128;23;20004;-87
2022/07/05 07:30:24;;;;;;;16.58;12.40;;;742.40;2432.00;;;;;;6245999;23;20307;-88
2022/07/05 07:32:51;;;;;;;13.40;12.00;;;742.50;2432.00;;;;;;6245836;23;20088;-86
2022/07/05 07:35:17;;;;;;;13.60;12.13;;;717.70;2432.00;;;;;;6245815;23;20060;-90
2022/07/05 07:37:43;;;;;;;12.98;11.75;;;742.50;2432.00;;;;;;6245823;23;20452;-90
2022/07/05 07:40:09;;;;;;;13.30;11.27;;;742.60;2432.00;;;;;;6245966;23;20078;-90
2022/07/05 07:42:36;;;;;;;12.43;11.13;;;742.80;2432.00;;;;;;6245958;23;20004;-90
2022/07/05 07:45:03;;;;;;;13.55;10.40;;;;;;;;;;6246130;23;20032;-87
2022/07/05 07:47:33;;;;;;;14.90;10.63;;;743.10;2432.00;;;;;;6246164;23;20480;-88
2022/07/05 07:50:00;;;;;;;29.33;13.93;;;743.00;2432.00;;;;;;6247345;23;20011;-89
2022/07/05 07:52:26;;;;;;;14.00;10.95;;;742.80;2432.00;;;;;;6265428;22;19988;-87
2022/07/05 07:54:52;;;;;;;17.70;11.32;;;743.00;2432.00;;;;;;6273533;22;20015;-89
2022/07/05 07:57:19;;;;;;;20.60;10.93;;;743.30;2432.00;;;;;;6263658;22;20063;-86
2022/07/05 07:59:45;;;;;;;15.93;12.13;;;768.10;2432.00;;;;;;6270860;22;20015;-85
2022/07/05 08:02:11;;;;;;;15.20;11.30;;;768.20;2432.00;;;;;;6258343;22;20008;-88
2022/07/05 08:04:37;;;;;;;13.85;11.20;;;768.40;2432.00;;;;;;6245865;23;20011;-88
2022/07/05 08:07:03;;;;;;;15.30;10.50;;;768.40;2432.00;;;;;;6245795;23;20016;-88
2022/07/05 08:09:30;;;;;;;15.73;11.90;;;768.40;2432.00;;;;;;6245310;23;20008;-90
2022/07/05 08:11:57;;;;;;;13.13;11.05;;;768.40;2432.00;;;;;;6245730;23;20000;-88
2022/07/05 08:14:23;;;;;;;15.45;11.48;;;768.50;2432.00;;;;;;6245446;23;20008;-87
2022/07/05 08:16:51;;;;;;;12.32;10.63;;;768.80;2432.00;;;;;;6245531;23;20135;-89
2022/07/05 08:22:03;;;;;;;14.82;12.20;;;;;;;;;;6248609;23;20042;-89
2022/07/05 08:24:29;;;;;;;15.82;11.65;;;;;;;;;;6247334;23;20035;-87
2022/07/05 08:26:58;;;;;;;13.00;10.77;;;794.10;2355.20;;;;;;6247063;23;20012;-92
2022/07/05 08:29:24;;;;;;;21.40;16.35;;;794.20;2355.20;;;;;;6250464;23;20027;-86
2022/07/05 08:31:51;;;;;;;18.08;12.40;;;794.40;2380.80;;;;;;6247495;23;20004;-89
2022/07/05 08:34:20;;;;;;;13.68;10.50;;;794.40;2304.00;;;;;;6247917;23;20045;-88
2022/07/05 08:36:47;;;;;;;14.90;11.10;;;794.40;2304.00;;;;;;6247151;23;20008;-87
2022/07/05 08:39:14;;;;;;;16.10;10.98;;;794.50;2278.40;;;;;;6246670;23;20012;-88
2022/07/05 08:41:42;;;;;;;13.60;11.82;;;819.20;2304.00;;;;;;6246917;23;20488;-87
2022/07/05 08:44:09;;;;;;;15.13;10.63;;;819.30;2329.60;;;;;;6246825;23;20099;-85
2022/07/05 08:46:40;;;;;;;15.98;10.88;;;819.50;2304.00;;;;;;6246168;23;20008;-85
2022/07/05 08:49:06;;;;;;;11.60;10.10;;;819.60;2278.40;;;;;;6246619;23;20009;-86
2022/07/05 08:51:41;;;;;;;85.93;16.92;;;794.50;2252.80;;;;;;6246604;23;20326;-86
2022/07/05 08:54:09;;;;;;;13.23;10.48;;;819.20;2278.40;;;;;;6246501;23;20039;-85
2022/07/05 08:56:36;;;;;;;14.13;9.90;;;819.50;2329.60;;;;;;6246789;23;20008;-88
2022/07/05 08:59:03;;;;;;;13.25;10.27;;;819.60;2329.60;;;;;;6246689;23;20008;-85
2022/07/05 09:01:34;;;;;;;11.50;10.30;;;819.30;2278.40;;;;;;6246346;23;20001;-85
2022/07/05 09:04:03;;;;;;;12.93;11.13;;;819.60;2278.40;;;;;;6247092;23;20004;-87
2022/07/05 09:06:34;;;;;;;13.40;10.85;;;819.90;2252.80;;;;;;6246671;23;20008;-87
2022/07/05 09:09:01;;;;;;;15.02;11.43;;;844.90;2278.40;;;;;;6246939;23;20004;-88
2022/07/05 09:11:37;;;;;;;14.68;9.95;;;819.80;2252.80;;;;;;6246795;23;20414;-88
2022/07/05 09:14:17;;;;;;;10.85;9.43;;;820.10;2252.80;;;;;;6246253;23;20054;-86
2022/07/05 09:16:43;;;;;;;11.93;9.90;;;820.00;2227.20;;;;;;6246406;23;20100;-85
2022/07/05 09:19:09;;;;;;;11.27;10.27;;;820.10;2227.20;;;;;;6246615;23;20035;-84
2022/07/05 09:21:35;;;;;;;15.90;9.95;;;820.00;2227.20;;;;;;6245863;23;20012;-83
2022/07/05 09:24:05;;;;;;;15.98;14.00;;;820.00;2201.60;;;;;;6246437;23;20004;-84
2022/07/05 09:26:39;;;;;;;13.30;11.68;;;844.90;2227.20;;;;;;6246015;23;20034;-84
2022/07/05 09:29:07;;;;;;;11.75;9.45;;;;;;;;;;6246016;23;20445;-82
2022/07/05 09:31:35;;;;;;;10.32;8.60;;;845.20;2150.40;;;;;;6245658;23;20024;-84
2022/07/05 09:34:09;;;;;;;12.25;10.73;;;;;;;;;;6245939;23;20015;-84
2022/07/05 09:36:50;;;;;;;14.05;9.98;;;870.40;2099.20;;;;;;6246243;23;20012;-83
2022/07/05 09:39:37;;;;;;;10.45;8.73;;;870.50;2099.20;;;;;;6245999;23;20369;-84
2022/07/05 09:42:10;;;;;;;11.73;8.88;;;870.70;2073.60;;;;;;6245881;23;20091;-84
2022/07/05 09:44:47;;;;;;;11.95;9.52;;;870.40;2048.00;;;;;;6246020;23;20087;-85
2022/07/05 09:47:18;;;;;;;10.63;8.82;;;870.60;2073.60;;;;;;6245920;23;20337;-85
2022/07/05 09:49:47;;;;;;;10.48;8.40;;;870.80;2048.00;;;;;;6246368;23;20000;-84
2022/07/05 09:52:34;;;;;;;13.18;9.25;;;870.90;2048.00;;;;;;6245777;23;20364;-83
2022/07/05 09:55:19;;;;;;;14.95;11.65;;;871.20;2022.40;;;;;;6245759;23;20525;-83
2022/07/05 09:57:50;;;;;;;10.43;9.20;;;871.30;1996.80;;;;;;6245844;23;20438;-82
2022/07/05 10:00:21;;;;;;;12.05;8.63;;;896.10;2022.40;;;;;;6245402;23;20000;-83
2022/07/05 10:02:48;;;;;;;10.80;8.82;;;871.30;1971.20;;;;;;6246056;23;20003;-87
2022/07/05 10:05:24;;;;;;;12.18;8.93;;;896.00;1971.20;;;;;;6246252;23;20377;-83
2022/07/05 10:07:57;;;;;;;13.68;9.77;;;896.30;1920.00;;;;;;6245492;23;20010;-83
2022/07/05 10:10:25;;;;;;;9.23;8.25;;;896.10;1894.40;;;;;;6247351;22;20058;-83
2022/07/05 10:12:55;;;;;;;10.93;8.48;;;871.30;1894.40;;;;;;6245198;23;20024;-82
2022/07/05 10:15:23;;;;;;;13.10;9.70;;;896.00;1868.80;;;;;;6245956;23;20026;-82
2022/07/05 10:18:14;;;;;;;13.00;9.57;;;871.30;1868.80;;;;;;6245590;23;20000;-83
2022/07/05 10:20:43;;;;;;;15.95;10.38;;;896.30;1868.80;;;;;;6247343;22;19997;-86
2022/07/05 10:23:17;;;;;;;9.82;8.68;;;896.60;1868.80;;;;;;6245465;23;20012;-85
2022/07/05 10:25:49;;;;;;;11.73;9.02;;;896.90;1868.80;;;;;;6246200;23;20004;-85
2022/07/05 10:28:19;;;;;;;10.02;8.55;;;921.80;1868.80;;;;;;6246064;23;20410;-84
2022/07/05 10:30:51;;;;;;;16.08;8.57;;;922.00;1894.40;;;;;;6246004;23;20004;-85
2022/07/05 10:33:25;;;;;;;11.43;8.63;;;922.00;1843.20;;;;;;6245455;23;19997;-84
2022/07/05 10:36:10;;;;;;;11.38;8.18;;;922.10;1843.20;;;;;;6245588;23;20322;-84
2022/07/05 10:38:47;;;;;;;10.23;8.00;;;921.60;1843.20;;;;;;6245961;23;19996;-85
2022/07/05 10:41:18;;;;;;;10.15;7.68;;;896.90;1817.60;;;;;;6245773;23;20004;-86
2022/07/05 10:43:44;;;;;;;12.25;8.90;;;921.80;1894.40;;;;;;6245866;23;20406;-86
2022/07/05 10:46:10;;;;;;;10.13;8.30;;;922.10;1843.20;;;;;;6245705;23;20008;-83
2022/07/05 10:48:36;;;;;;;9.77;8.23;;;921.80;1843.20;;;;;;6245777;23;20027;-84
2022/07/05 10:51:23;;;;;;;10.25;8.50;;;922.00;1843.20;;;;;;6246026;23;20001;-84
2022/07/05 10:53:55;;;;;;;10.27;8.00;;;922.00;1817.60;;;;;;6246074;23;20436;-85
2022/07/05 10:56:21;;;;;;;9.27;7.85;;;922.40;1868.80;;;;;;6245406;23;20008;-85
2022/07/05 10:59:03;;;;;;;14.68;8.80;;;947.20;1792.00;;;;;;6220943;23;20073;-84
2022/07/05 11:01:34;;;;;;;13.70;8.30;;;922.30;1766.40;;;;;;6261235;23;20038;-84
2022/07/05 11:04:02;;;;;;;10.00;8.33;;;922.50;1766.40;;;;;;6262326;23;20004;-85
2022/07/05 11:06:29;;;;;;;17.58;9.95;;;922.50;1817.60;;;;;;6245767;23;20008;-86
2022/07/05 11:08:58;;;;;;;10.43;9.07;;;947.30;1817.60;;;;;;6245101;23;20075;-86
2022/07/05 11:11:35;;;;;;;9.50;8.50;;;947.70;1766.40;;;;;;6245075;23;20083;-85
2022/07/05 11:14:03;;;;;;;10.30;7.75;;;947.80;1715.20;;;;;;6245663;23;20005;-86
2022/07/05 11:16:30;;;;;;;11.18;8.23;;;947.70;1689.60;;;;;;6245434;23;20441;-85
2022/07/05 11:19:11;;;;;;;12.02;7.95;;;948.10;1740.80;;;;;;6245884;23;20027;-87
2022/07/05 11:22:00;;;;;;;10.55;8.13;;;948.00;1689.60;;;;;;6247022;22;20004;-86
2022/07/05 11:24:27;;;;;;;11.88;7.70;;;972.80;1689.60;;;;;;6245348;23;20058;-85
2022/07/05 11:26:58;;;;;;;9.98;7.60;;;972.90;1689.60;;;;;;6245270;23;20020;-86
2022/07/05 11:29:44;;;;;;;10.10;7.90;;;973.10;1715.20;;;;;;6245377;23;20008;-85
2022/07/05 11:32:15;;;;;;;11.52;8.15;;;972.90;1715.20;;;;;;6245678;23;20079;-85
2022/07/05 11:34:44;;;;;;;11.90;8.13;;;973.10;1664.00;;;;;;6245463;23;20441;-87
2022/07/05 11:37:24;;;;;;;10.48;7.82;;;972.80;1612.80;;;;;;6245412;23;20370;-86
2022/07/05 11:40:10;;;;;;;13.90;8.30;;;973.20;1638.40;;;;;;6245768;23;20083;-85
2022/07/05 11:42:41;;;;;;;11.50;7.88;;;973.20;1587.20;;;;;;6245432;23;20004;-86
2022/07/05 11:45:11;;;;;;;12.13;7.82;;;948.10;1536.00;;;;;;6245141;23;20004;-84
2022/07/05 11:47:37;;;;;;;8.88;7.97;;;973.20;1587.20;;;;;;6244963;23;20442;-85
2022/07/05 11:50:04;;;;;;;9.88;8.05;;;973.20;1587.20;;;;;;6244833;23;20004;-86
2022/07/05 11:52:32;;;;;;;10.60;8.43;;;973.40;1587.20;;;;;;6245306;23;20012;-86
2022/07/05 11:54:59;;;;;;;10.77;8.40;;;998.40;1612.80;;;;;;6245824;23;20000;-85
2022/07/05 11:57:25;;;;;;;12.07;7.75;;;998.50;1587.20;;;;;;6247092;23;20011;-84
2022/07/05 11:59:52;;;;;;;10.63;8.38;;;973.10;1536.00;;;;;;6247532;23;20012;-86
2022/07/05 12:02:18;;;;;;;14.68;7.80;;;948.10;1510.40;;;;;;6247648;23;20028;-86
2022/07/05 12:04:48;;;;;;;9.35;8.10;;;947.60;1561.60;;;;;;6247723;23;20637;-85
2022/07/05 12:07:25;;;;;;;10.20;8.25;;;947.30;1561.60;;;;;;6248400;23;20062;-87
2022/07/05 12:12:42;;;;;;;11.82;9.55;;;922.30;1612.80;;;;;;6268000;22;20011;-84
2022/07/05 12:15:19;;;;;;;10.73;8.77;;;922.20;1638.40;;;;;;6263418;23;20080;-85
2022/07/05 12:17:51;;;;;;;14.48;9.40;;;922.00;1638.40;;;;;;6254352;23;20065;-87